sensor_id;sensor_type;location;lat;lon;timestamp;pressure;altitude;pressure_sealevel;temperature;humidity
7768;BME280;3928;42.626;23.382;2022-11-15T00:01:56;94735.63;;;7.82;86.23
7768;BME280;3928;42.626;23.382;2022-11-15T00:04:23;94733.03;;;7.62;87.23
7768;BME280;3928;42.626;23.382;2022-11-15T00:06:50;94738.09;;;7.54;87.10
7768;BME280;3928;42.626;23.382;2022-11-15T00:09:17;94741.53;;;7.49;86.66
7768;BME280;3928;42.626;23.382;2022-11-15T00:11:45;94732.94;;;7.27;85.97
7768;BME280;3928;42.626;23.382;2022-11-15T00:14:11;94736.31;;;7.21;85.96
7768;BME280;3928;42.626;23.382;2022-11-15T00:16:38;94726.97;;;7.19;87.13
7768;BME280;3928;42.626;23.382;2022-11-15T00:19:05;94732.91;;;7.19;87.12
7768;BME280;3928;42.626;23.382;2022-11-15T00:21:32;94733.78;;;7.20;87.69
7768;BME280;3928;42.626;23.382;2022-11-15T00:23:58;94718.44;;;7.17;87.38
7768;BME280;3928;42.626;23.382;2022-11-15T00:26:25;94732.13;;;7.34;86.71
7768;BME280;3928;42.626;23.382;2022-11-15T00:28:53;94729.56;;;7.42;85.75
7768;BME280;3928;42.626;23.382;2022-11-15T00:31:20;94727.03;;;7.51;85.03
7768;BME280;3928;42.626;23.382;2022-11-15T00:33:47;94721.94;;;7.54;84.96
7768;BME280;3928;42.626;23.382;2022-11-15T00:36:14;94677.66;;;7.38;84.63
7768;BME280;3928;42.626;23.382;2022-11-15T00:38:41;94712.59;;;7.65;83.78
7768;BME280;3928;42.626;23.382;2022-11-15T00:41:08;94717.72;;;7.71;84.03
7768;BME280;3928;42.626;23.382;2022-11-15T00:43:35;94708.34;;;7.70;83.90
7768;BME280;3928;42.626;23.382;2022-11-15T00:46:03;94715.16;;;7.70;83.06
7768;BME280;3928;42.626;23.382;2022-11-15T00:48:30;94704.06;;;7.63;83.20
7768;BME280;3928;42.626;23.382;2022-11-15T00:50:57;94706.63;;;7.65;82.42
7768;BME280;3928;42.626;23.382;2022-11-15T00:53:24;94704.06;;;7.63;83.41
7768;BME280;3928;42.626;23.382;2022-11-15T00:55:51;94704.94;;;7.60;84.47
7768;BME280;3928;42.626;23.382;2022-11-15T00:58:17;94704.09;;;7.60;83.84
7768;BME280;3928;42.626;23.382;2022-11-15T01:00:44;94708.31;;;7.53;84.21
7768;BME280;3928;42.626;23.382;2022-11-15T01:03:12;94708.28;;;7.32;84.50
7768;BME280;3928;42.626;23.382;2022-11-15T01:05:40;94708.25;;;7.17;85.03
7768;BME280;3928;42.626;23.382;2022-11-15T01:08:12;94675.00;;;6.91;85.84
7768;BME280;3928;42.626;23.382;2022-11-15T01:10:39;94703.97;;;7.08;86.98
7768;BME280;3928;42.626;23.382;2022-11-15T01:13:05;94696.31;;;7.07;87.48
7768;BME280;3928;42.626;23.382;2022-11-15T01:15:32;94693.75;;;7.10;86.93
7768;BME280;3928;42.626;23.382;2022-11-15T01:17:59;94692.09;;;7.13;86.89
7768;BME280;3928;42.626;23.382;2022-11-15T01:20:27;94703.13;;;7.17;86.55
7768;BME280;3928;42.626;23.382;2022-11-15T01:22:54;94687.75;;;6.92;86.59
7768;BME280;3928;42.626;23.382;2022-11-15T01:25:21;94696.22;;;6.78;88.44
7768;BME280;3928;42.626;23.382;2022-11-15T01:27:48;94697.06;;;6.77;88.81
7768;BME280;3928;42.626;23.382;2022-11-15T01:30:15;94668.97;;;6.69;88.55
7768;BME280;3928;42.626;23.382;2022-11-15T01:32:42;94695.41;;;6.91;87.86
7768;BME280;3928;42.626;23.382;2022-11-15T01:35:08;94669.00;;;6.78;87.53
7768;BME280;3928;42.626;23.382;2022-11-15T01:37:36;94696.31;;;7.03;86.91
7768;BME280;3928;42.626;23.382;2022-11-15T01:40:04;94692.94;;;7.11;86.30
7768;BME280;3928;42.626;23.382;2022-11-15T01:42:31;94697.19;;;7.16;86.10
7768;BME280;3928;42.626;23.382;2022-11-15T01:44:58;94685.28;;;7.18;85.92
7768;BME280;3928;42.626;23.382;2022-11-15T01:47:27;94686.97;;;7.18;85.39
7768;BME280;3928;42.626;23.382;2022-11-15T01:49:58;94703.13;;;7.20;85.41
7768;BME280;3928;42.626;23.382;2022-11-15T01:52:28;94699.69;;;7.01;86.38
7768;BME280;3928;42.626;23.382;2022-11-15T01:55:02;94686.06;;;6.91;87.38
7768;BME280;3928;42.626;23.382;2022-11-15T01:57:30;94686.06;;;6.97;86.55
7768;BME280;3928;42.626;23.382;2022-11-15T01:59:57;94682.66;;;6.98;86.85
7768;BME280;3928;42.626;23.382;2022-11-15T02:02:27;94692.06;;;7.02;86.42
7768;BME280;3928;42.626;23.382;2022-11-15T02:04:54;94694.59;;;7.06;86.08
7768;BME280;3928;42.626;23.382;2022-11-15T02:07:21;94686.09;;;7.03;84.93
7768;BME280;3928;42.626;23.382;2022-11-15T02:09:49;94684.41;;;7.01;85.27
7768;BME280;3928;42.626;23.382;2022-11-15T02:12:20;94680.09;;;6.94;85.41
7768;BME280;3928;42.626;23.382;2022-11-15T02:14:52;94686.06;;;6.94;85.21
7768;BME280;3928;42.626;23.382;2022-11-15T02:17:39;94693.75;;;7.00;85.00
7768;BME280;3928;42.626;23.382;2022-11-15T02:20:33;94686.94;;;7.04;84.08
7768;BME280;3928;42.626;23.382;2022-11-15T02:26:31;94686.13;;;7.14;83.32
7768;BME280;3928;42.626;23.382;2022-11-15T02:29:10;94687.81;;;7.20;83.46
7768;BME280;3928;42.626;23.382;2022-11-15T02:31:45;94688.69;;;7.20;83.36
7768;BME280;3928;42.626;23.382;2022-11-15T02:34:20;94686.13;;;7.17;83.99
7768;BME280;3928;42.626;23.382;2022-11-15T02:36:58;94687.78;;;7.04;84.51
7768;BME280;3928;42.626;23.382;2022-11-15T02:39:33;94685.25;;;7.00;84.85
7768;BME280;3928;42.626;23.382;2022-11-15T02:42:04;94664.75;;;6.82;85.01
7768;BME280;3928;42.626;23.382;2022-11-15T02:44:55;94674.97;;;6.86;85.71
7768;BME280;3928;42.626;23.382;2022-11-15T02:47:24;94672.41;;;6.83;85.83
7768;BME280;3928;42.626;23.382;2022-11-15T02:49:57;94666.41;;;6.69;85.78
7768;BME280;3928;42.626;23.382;2022-11-15T02:52:25;94683.41;;;6.70;85.84
7768;BME280;3928;42.626;23.382;2022-11-15T02:54:53;94669.78;;;6.62;86.39
7768;BME280;3928;42.626;23.382;2022-11-15T02:57:32;94661.28;;;6.60;86.85
7768;BME280;3928;42.626;23.382;2022-11-15T03:00:06;94666.41;;;6.69;86.19
7768;BME280;3928;42.626;23.382;2022-11-15T03:02:57;94681.75;;;6.80;85.90
7768;BME280;3928;42.626;23.382;2022-11-15T03:05:34;94677.47;;;6.71;86.50
7768;BME280;3928;42.626;23.382;2022-11-15T03:08:08;94679.13;;;6.63;87.00
7768;BME280;3928;42.626;23.382;2022-11-15T03:10:44;94679.13;;;6.54;87.57
7768;BME280;3928;42.626;23.382;2022-11-15T03:13:20;94673.09;;;6.39;87.80
7768;BME280;3928;42.626;23.382;2022-11-15T03:15:53;94679.75;;;6.16;89.10
7768;BME280;3928;42.626;23.382;2022-11-15T03:18:26;94685.72;;;6.18;90.84
7768;BME280;3928;42.626;23.382;2022-11-15T03:20:57;94678.94;;;6.20;90.82
7768;BME280;3928;42.626;23.382;2022-11-15T03:23:26;94663.63;;;6.19;90.46
7768;BME280;3928;42.626;23.382;2022-11-15T03:25:54;94672.16;;;6.25;90.54
7768;BME280;3928;42.626;23.382;2022-11-15T03:28:25;94655.13;;;6.18;90.09
7768;BME280;3928;42.626;23.382;2022-11-15T03:30:55;94676.50;;;6.41;89.53
7768;BME280;3928;42.626;23.382;2022-11-15T03:33:25;94673.13;;;6.45;88.73
7768;BME280;3928;42.626;23.382;2022-11-15T03:35:53;94663.81;;;6.57;88.57
7768;BME280;3928;42.626;23.382;2022-11-15T03:38:24;94642.56;;;6.53;88.43
7768;BME280;3928;42.626;23.382;2022-11-15T03:40:57;94657.00;;;6.56;87.94
7768;BME280;3928;42.626;23.382;2022-11-15T03:43:30;94657.03;;;6.60;88.45
7768;BME280;3928;42.626;23.382;2022-11-15T03:46:02;94617.84;;;6.38;88.30
7768;BME280;3928;42.626;23.382;2022-11-15T03:48:37;94652.78;;;6.62;88.41
7768;BME280;3928;42.626;23.382;2022-11-15T03:51:06;94634.06;;;6.60;88.25
7768;BME280;3928;42.626;23.382;2022-11-15T03:53:33;94640.91;;;6.66;88.46
7768;BME280;3928;42.626;23.382;2022-11-15T03:56:00;94645.16;;;6.65;89.02
7768;BME280;3928;42.626;23.382;2022-11-15T03:58:26;94640.88;;;6.61;89.37
7768;BME280;3928;42.626;23.382;2022-11-15T04:00:53;94650.25;;;6.64;89.92
7768;BME280;3928;42.626;23.382;2022-11-15T04:03:20;94646.88;;;6.66;89.66
7768;BME280;3928;42.626;23.382;2022-11-15T04:05:48;94642.63;;;6.68;90.05
7768;BME280;3928;42.626;23.382;2022-11-15T04:08:15;94644.31;;;6.74;89.74
7768;BME280;3928;42.626;23.382;2022-11-15T04:10:42;94646.00;;;6.73;89.33
7768;BME280;3928;42.626;23.382;2022-11-15T04:13:09;94583.00;;;6.33;87.56
7768;BME280;3928;42.626;23.382;2022-11-15T04:15:36;94648.56;;;6.70;86.77
7768;BME280;3928;42.626;23.382;2022-11-15T04:18:03;94634.91;;;6.58;85.84
7768;BME280;3928;42.626;23.382;2022-11-15T04:20:31;94639.16;;;6.54;86.05
7768;BME280;3928;42.626;23.382;2022-11-15T04:23:18;94643.38;;;6.48;86.55
7768;BME280;3928;42.626;23.382;2022-11-15T04:26:05;94638.22;;;6.35;86.64
7768;BME280;3928;42.626;23.382;2022-11-15T04:28:32;94631.38;;;6.22;88.03
7768;BME280;3928;42.626;23.382;2022-11-15T04:30:59;94622.81;;;6.12;88.97
7768;BME280;3928;42.626;23.382;2022-11-15T04:33:26;94639.78;;;6.09;89.04
7768;BME280;3928;42.626;23.382;2022-11-15T04:35:53;94634.69;;;6.06;89.71
7768;BME280;3928;42.626;23.382;2022-11-15T04:38:38;94624.44;;;6.01;90.54
7768;BME280;3928;42.626;23.382;2022-11-15T04:41:05;94635.50;;;6.03;91.02
7768;BME280;3928;42.626;23.382;2022-11-15T04:43:32;94637.19;;;6.03;91.44
7768;BME280;3928;42.626;23.382;2022-11-15T04:45:58;94573.25;;;5.65;91.36
7768;BME280;3928;42.626;23.382;2022-11-15T04:48:25;94636.34;;;6.02;92.34
7768;BME280;3928;42.626;23.382;2022-11-15T04:50:52;94639.72;;;6.00;92.47
7768;BME280;3928;42.626;23.382;2022-11-15T04:53:19;94629.41;;;5.81;93.29
7768;BME280;3928;42.626;23.382;2022-11-15T04:55:47;94631.88;;;5.69;94.07
7768;BME280;3928;42.626;23.382;2022-11-15T04:58:14;94635.97;;;5.55;95.58
7768;BME280;3928;42.626;23.382;2022-11-15T05:00:40;94638.44;;;5.43;96.22
7768;BME280;3928;42.626;23.382;2022-11-15T05:03:09;94634.00;;;5.20;96.71
7768;BME280;3928;42.626;23.382;2022-11-15T05:05:53;94630.56;;;5.12;98.44
7768;BME280;3928;42.626;23.382;2022-11-15T05:08:20;94644.16;;;5.16;99.79
7768;BME280;3928;42.626;23.382;2022-11-15T05:10:48;94643.28;;;5.12;99.93
7768;BME280;3928;42.626;23.382;2022-11-15T05:13:15;94649.22;;;5.13;100.00
7768;BME280;3928;42.626;23.382;2022-11-15T05:15:42;94634.00;;;5.20;100.00
7768;BME280;3928;42.626;23.382;2022-11-15T05:18:09;94627.19;;;5.19;100.00
7768;BME280;3928;42.626;23.382;2022-11-15T05:20:36;94640.94;;;5.34;100.00
7768;BME280;3928;42.626;23.382;2022-11-15T05:23:03;94646.06;;;5.40;100.00
7768;BME280;3928;42.626;23.382;2022-11-15T05:25:30;94613.69;;;5.23;100.00
7768;BME280;3928;42.626;23.382;2022-11-15T05:27:58;94647.72;;;5.35;100.00
7768;BME280;3928;42.626;23.382;2022-11-15T05:30:25;94625.59;;;5.26;100.00
7768;BME280;3928;42.626;23.382;2022-11-15T05:32:53;94648.59;;;5.40;100.00
7768;BME280;3928;42.626;23.382;2022-11-15T05:35:29;94643.50;;;5.41;100.00
7768;BME280;3928;42.626;23.382;2022-11-15T05:37:57;94630.78;;;5.38;100.00
7768;BME280;3928;42.626;23.382;2022-11-15T05:40:24;94630.75;;;5.37;100.00
7768;BME280;3928;42.626;23.382;2022-11-15T05:42:52;94645.31;;;5.54;100.00
7768;BME280;3928;42.626;23.382;2022-11-15T05:45:20;94635.19;;;5.59;100.00
7768;BME280;3928;42.626;23.382;2022-11-15T05:47:48;94641.16;;;5.67;100.00
7768;BME280;3928;42.626;23.382;2022-11-15T05:50:16;94627.47;;;5.48;100.00
7768;BME280;3928;42.626;23.382;2022-11-15T05:52:45;94641.16;;;5.67;100.00
7768;BME280;3928;42.626;23.382;2022-11-15T05:55:15;94642.00;;;5.66;100.00
7768;BME280;3928;42.626;23.382;2022-11-15T05:57:42;94642.06;;;5.74;100.00
7768;BME280;3928;42.626;23.382;2022-11-15T06:00:10;94635.31;;;5.79;100.00
7768;BME280;3928;42.626;23.382;2022-11-15T06:02:38;94637.06;;;5.81;100.00
7768;BME280;3928;42.626;23.382;2022-11-15T06:05:05;94642.19;;;5.89;100.00
7768;BME280;3928;42.626;23.382;2022-11-15T06:07:32;94636.31;;;5.95;100.00
7768;BME280;3928;42.626;23.382;2022-11-15T06:09:59;94636.56;;;6.43;100.00
7768;BME280;3928;42.626;23.382;2022-11-15T06:12:25;94640.16;;;7.07;100.00
7768;BME280;3928;42.626;23.382;2022-11-15T06:14:52;94643.63;;;7.73;100.00
7768;BME280;3928;42.626;23.382;2022-11-15T06:17:19;94656.34;;;8.12;99.09
7768;BME280;3928;42.626;23.382;2022-11-15T06:19:47;94651.25;;;8.20;92.24
7768;BME280;3928;42.626;23.382;2022-11-15T06:22:14;94653.78;;;8.21;90.79
7768;BME280;3928;42.626;23.382;2022-11-15T06:27:26;94655.53;;;8.01;89.53
7768;BME280;3928;42.626;23.382;2022-11-15T06:29:53;94656.38;;;7.77;90.78
7768;BME280;3928;42.626;23.382;2022-11-15T06:32:20;94652.97;;;7.57;93.33
7768;BME280;3928;42.626;23.382;2022-11-15T06:34:48;94653.81;;;7.41;94.97
7768;BME280;3928;42.626;23.382;2022-11-15T06:37:15;94653.81;;;7.24;95.71
7768;BME280;3928;42.626;23.382;2022-11-15T06:39:42;94655.47;;;7.07;97.34
7768;BME280;3928;42.626;23.382;2022-11-15T06:42:09;94649.50;;;6.94;97.42
7768;BME280;3928;42.626;23.382;2022-11-15T06:44:36;94657.16;;;6.89;98.10
7768;BME280;3928;42.626;23.382;2022-11-15T06:47:02;94646.09;;;6.93;98.20
7768;BME280;3928;42.626;23.382;2022-11-15T06:49:29;94645.25;;;6.97;97.62
7768;BME280;3928;42.626;23.382;2022-11-15T06:51:57;94641.84;;;6.98;96.99
7768;BME280;3928;42.626;23.382;2022-11-15T06:54:24;94645.25;;;7.03;97.09
7768;BME280;3928;42.626;23.382;2022-11-15T06:56:51;94639.28;;;6.95;96.67
7768;BME280;3928;42.626;23.382;2022-11-15T06:59:17;94641.72;;;6.62;98.15
7768;BME280;3928;42.626;23.382;2022-11-15T07:01:44;94646.75;;;6.43;99.18
7768;BME280;3928;42.626;23.382;2022-11-15T07:04:11;94639.13;;;6.40;100.00
7768;BME280;3928;42.626;23.382;2022-11-15T07:06:38;94635.78;;;6.58;100.00
7768;BME280;3928;42.626;23.382;2022-11-15T07:09:06;94640.06;;;6.65;100.00
7768;BME280;3928;42.626;23.382;2022-11-15T07:11:33;94605.13;;;6.51;100.00
7768;BME280;3928;42.626;23.382;2022-11-15T07:14:00;94643.47;;;6.66;100.00
7768;BME280;3928;42.626;23.382;2022-11-15T07:16:27;94634.13;;;6.71;99.97
7768;BME280;3928;42.626;23.382;2022-11-15T07:18:53;94627.28;;;6.56;99.57
7768;BME280;3928;42.626;23.382;2022-11-15T07:21:20;94631.53;;;6.59;100.00
7768;BME280;3928;42.626;23.382;2022-11-15T07:23:47;94624.75;;;6.71;100.00
7768;BME280;3928;42.626;23.382;2022-11-15T07:26:15;94629.06;;;6.92;100.00
7768;BME280;3928;42.626;23.382;2022-11-15T07:28:42;94626.56;;;7.11;99.44
7768;BME280;3928;42.626;23.382;2022-11-15T07:31:09;94608.69;;;7.09;97.96
7768;BME280;3928;42.626;23.382;2022-11-15T07:33:36;94631.72;;;7.35;97.32
7768;BME280;3928;42.626;23.382;2022-11-15T07:36:04;94630.88;;;7.48;97.77
7768;BME280;3928;42.626;23.382;2022-11-15T07:38:32;94635.97;;;7.47;95.75
7768;BME280;3928;42.626;23.382;2022-11-15T07:41:01;94632.56;;;7.40;96.57
7768;BME280;3928;42.626;23.382;2022-11-15T07:43:30;94630.84;;;7.44;96.85
7768;BME280;3928;42.626;23.382;2022-11-15T07:45:59;94633.41;;;7.48;97.18
7768;BME280;3928;42.626;23.382;2022-11-15T07:48:30;94617.25;;;7.37;97.70
7768;BME280;3928;42.626;23.382;2022-11-15T07:50:57;94633.41;;;7.47;97.42
7768;BME280;3928;42.626;23.382;2022-11-15T07:53:24;94629.16;;;7.38;96.42
7768;BME280;3928;42.626;23.382;2022-11-15T07:55:51;94625.75;;;7.35;96.57
7768;BME280;3928;42.626;23.382;2022-11-15T07:58:19;94624.91;;;7.46;97.11
7768;BME280;3928;42.626;23.382;2022-11-15T08:00:47;94624.06;;;7.47;98.23
7768;BME280;3928;42.626;23.382;2022-11-15T08:03:15;94633.41;;;7.67;98.21
7768;BME280;3928;42.626;23.382;2022-11-15T08:05:43;94631.69;;;7.84;97.86
7768;BME280;3928;42.626;23.382;2022-11-15T08:08:11;94627.44;;;7.95;97.16
7768;BME280;3928;42.626;23.382;2022-11-15T08:10:38;94628.25;;;8.08;96.70
7768;BME280;3928;42.626;23.382;2022-11-15T08:13:06;94624.81;;;8.19;95.54
7768;BME280;3928;42.626;23.382;2022-11-15T08:15:34;94606.06;;;8.24;95.00
7768;BME280;3928;42.626;23.382;2022-11-15T08:18:06;94620.53;;;8.37;94.37
7768;BME280;3928;42.626;23.382;2022-11-15T08:20:33;94619.66;;;8.44;93.91
7768;BME280;3928;42.626;23.382;2022-11-15T08:23:02;94623.91;;;8.48;93.18
7768;BME280;3928;42.626;23.382;2022-11-15T08:25:30;94619.63;;;8.50;93.16
7768;BME280;3928;42.626;23.382;2022-11-15T08:28:00;94616.22;;;8.51;93.75
7768;BME280;3928;42.626;23.382;2022-11-15T08:30:27;94624.75;;;8.52;93.78
7768;BME280;3928;42.626;23.382;2022-11-15T08:32:57;94624.72;;;8.59;93.24
7768;BME280;3928;42.626;23.382;2022-11-15T08:35:25;94627.25;;;8.67;92.89
7768;BME280;3928;42.626;23.382;2022-11-15T08:37:52;94619.53;;;8.71;92.45
7768;BME280;3928;42.626;23.382;2022-11-15T08:40:20;94622.16;;;8.65;92.71
7768;BME280;3928;42.626;23.382;2022-11-15T08:42:47;94614.47;;;8.65;93.74
7768;BME280;3928;42.626;23.382;2022-11-15T08:45:14;94622.09;;;8.74;93.04
7768;BME280;3928;42.626;23.382;2022-11-15T08:47:41;94608.41;;;8.82;92.31
7768;BME280;3928;42.626;23.382;2022-11-15T08:50:08;94602.41;;;8.89;92.07
7768;BME280;3928;42.626;23.382;2022-11-15T08:52:37;94608.38;;;8.88;91.48
7768;BME280;3928;42.626;23.382;2022-11-15T08:55:04;94600.66;;;8.94;91.48
7768;BME280;3928;42.626;23.382;2022-11-15T08:57:31;94598.94;;;9.00;89.93
7768;BME280;3928;42.626;23.382;2022-11-15T08:59:58;94592.97;;;9.01;90.86
7768;BME280;3928;42.626;23.382;2022-11-15T09:02:25;94554.66;;;8.83;91.25
7768;BME280;3928;42.626;23.382;2022-11-15T09:04:51;94592.00;;;9.16;90.60
7768;BME280;3928;42.626;23.382;2022-11-15T09:07:18;94580.88;;;9.19;90.25
7768;BME280;3928;42.626;23.382;2022-11-15T09:09:46;94578.31;;;9.20;90.24
7768;BME280;3928;42.626;23.382;2022-11-15T09:12:13;94576.56;;;9.25;89.57
7768;BME280;3928;42.626;23.382;2022-11-15T09:14:40;94575.63;;;9.37;90.39
7768;BME280;3928;42.626;23.382;2022-11-15T09:17:07;94566.25;;;9.34;89.61
7768;BME280;3928;42.626;23.382;2022-11-15T09:19:34;94570.56;;;9.28;90.07
7768;BME280;3928;42.626;23.382;2022-11-15T09:22:05;94558.69;;;9.18;90.67
7768;BME280;3928;42.626;23.382;2022-11-15T09:24:32;94567.19;;;9.26;90.43
7768;BME280;3928;42.626;23.382;2022-11-15T09:27:00;94567.97;;;9.35;89.94
7768;BME280;3928;42.626;23.382;2022-11-15T09:29:27;94559.38;;;9.40;90.04
7768;BME280;3928;42.626;23.382;2022-11-15T09:31:54;94554.19;;;9.49;89.88
7768;BME280;3928;42.626;23.382;2022-11-15T09:34:21;94551.53;;;9.61;90.38
7768;BME280;3928;42.626;23.382;2022-11-15T09:36:47;94542.03;;;9.69;89.61
7768;BME280;3928;42.626;23.382;2022-11-15T09:39:14;94524.19;;;9.61;88.92
7768;BME280;3928;42.626;23.382;2022-11-15T09:41:58;94541.88;;;9.86;87.89
7768;BME280;3928;42.626;23.382;2022-11-15T09:44:59;94537.59;;;9.86;88.60
7768;BME280;3928;42.626;23.382;2022-11-15T09:47:40;94528.22;;;9.85;88.52
7768;BME280;3928;42.626;23.382;2022-11-15T09:50:13;94532.34;;;9.99;88.86
7768;BME280;3928;42.626;23.382;2022-11-15T09:52:43;94531.41;;;10.07;88.42
7768;BME280;3928;42.626;23.382;2022-11-15T09:55:12;94533.84;;;10.16;88.38
7768;BME280;3928;42.626;23.382;2022-11-15T09:57:50;94524.34;;;10.28;87.09
7768;BME280;3928;42.626;23.382;2022-11-15T10:00:22;94517.38;;;10.37;85.77
7768;BME280;3928;42.626;23.382;2022-11-15T10:03:06;94518.09;;;10.48;84.63
7768;BME280;3928;42.626;23.382;2022-11-15T10:05:37;94517.03;;;10.65;83.85
7768;BME280;3928;42.626;23.382;2022-11-15T10:08:20;94498.88;;;10.77;84.48
7768;BME280;3928;42.626;23.382;2022-11-15T10:10:53;94508.78;;;11.03;83.62
7768;BME280;3928;42.626;23.382;2022-11-15T10:13:23;94505.91;;;11.23;82.98
7768;BME280;3928;42.626;23.382;2022-11-15T10:15:53;94495.22;;;11.47;81.17
7768;BME280;3928;42.626;23.382;2022-11-15T10:18:26;94474.50;;;11.56;79.64
7768;BME280;3928;42.626;23.382;2022-11-15T10:20:59;94454.91;;;11.51;79.19
7768;BME280;3928;42.626;23.382;2022-11-15T10:23:27;94451.47;;;11.98;83.16
7768;BME280;3928;42.626;23.382;2022-11-15T10:26:00;94482.44;;;12.75;85.27
7768;BME280;3928;42.626;23.382;2022-11-15T10:28:29;94482.94;;;13.30;80.48
7768;BME280;3928;42.626;23.382;2022-11-15T10:30:59;94484.91;;;13.87;72.44
7768;BME280;3928;42.626;23.382;2022-11-15T10:33:30;94464.06;;;14.25;71.61
7768;BME280;3928;42.626;23.382;2022-11-15T10:36:18;94481.75;;;14.98;69.19
7768;BME280;3928;42.626;23.382;2022-11-15T10:38:56;94468.81;;;15.53;63.67
7768;BME280;3928;42.626;23.382;2022-11-15T10:41:32;94445.69;;;15.98;60.41
7768;BME280;3928;42.626;23.382;2022-11-15T10:47:20;94450.97;;;16.66;58.17
7768;BME280;3928;42.626;23.382;2022-11-15T10:50:04;94435.94;;;16.98;56.25
7768;BME280;3928;42.626;23.382;2022-11-15T10:52:34;94440.88;;;17.26;55.52
7768;BME280;3928;42.626;23.382;2022-11-15T10:55:05;94437.69;;;17.41;53.73
7768;BME280;3928;42.626;23.382;2022-11-15T10:57:36;94425.84;;;17.34;54.00
7768;BME280;3928;42.626;23.382;2022-11-15T11:00:05;94432.22;;;17.47;52.59
7768;BME280;3928;42.626;23.382;2022-11-15T11:02:36;94435.00;;;17.63;52.23
7768;BME280;3928;42.626;23.382;2022-11-15T11:05:06;94392.47;;;17.67;51.36
7768;BME280;3928;42.626;23.382;2022-11-15T11:07:34;94421.84;;;18.08;50.27
7768;BME280;3928;42.626;23.382;2022-11-15T11:10:05;94412.22;;;18.31;49.44
7768;BME280;3928;42.626;23.382;2022-11-15T11:12:43;94396.91;;;18.44;49.21
7768;BME280;3928;42.626;23.382;2022-11-15T11:15:12;94392.78;;;18.77;49.16
7768;BME280;3928;42.626;23.382;2022-11-15T11:17:51;94400.91;;;19.07;48.12
7768;BME280;3928;42.626;23.382;2022-11-15T11:20:26;94397.47;;;19.07;46.90
7768;BME280;3928;42.626;23.382;2022-11-15T11:23:10;94399.22;;;19.23;46.97
7768;BME280;3928;42.626;23.382;2022-11-15T11:25:44;94383.94;;;19.52;46.69
7768;BME280;3928;42.626;23.382;2022-11-15T11:28:29;94379.34;;;19.74;45.10
7768;BME280;3928;42.626;23.382;2022-11-15T11:31:08;94381.88;;;19.93;43.21
7768;BME280;3928;42.626;23.382;2022-11-15T11:33:43;94346.84;;;19.99;43.54
7768;BME280;3928;42.626;23.382;2022-11-15T11:36:20;94364.56;;;20.25;42.53
7768;BME280;3928;42.626;23.382;2022-11-15T11:38:55;94359.34;;;20.41;42.10
7768;BME280;3928;42.626;23.382;2022-11-15T11:42:56;93991.31;;;18.48;42.66
7768;BME280;3928;42.626;23.382;2022-11-15T11:45:47;94345.47;;;21.03;41.10
7768;BME280;3928;42.626;23.382;2022-11-15T11:48:26;94341.16;;;21.34;40.82
7768;BME280;3928;42.626;23.382;2022-11-15T11:51:03;94336.72;;;21.50;39.89
7768;BME280;3928;42.626;23.382;2022-11-15T12:16:30;94299.81;;;21.99;38.24
7768;BME280;3928;42.626;23.382;2022-11-15T12:19:00;94270.19;;;22.14;37.26
7768;BME280;3928;42.626;23.382;2022-11-15T12:21:34;94295.03;;;22.48;36.79
7768;BME280;3928;42.626;23.382;2022-11-15T12:24:06;94284.19;;;22.55;36.45
7768;BME280;3928;42.626;23.382;2022-11-15T12:26:41;94282.56;;;22.66;36.06
7768;BME280;3928;42.626;23.382;2022-11-15T12:29:15;94290.38;;;22.81;35.75
7768;BME280;3928;42.626;23.382;2022-11-15T12:31:47;94263.44;;;22.93;35.25
7768;BME280;3928;42.626;23.382;2022-11-15T12:34:38;94272.50;;;23.14;34.90
7768;BME280;3928;42.626;23.382;2022-11-15T12:40:33;94261.97;;;23.54;33.91
7768;BME280;3928;42.626;23.382;2022-11-15T12:45:51;94245.75;;;23.87;33.51
7768;BME280;3928;42.626;23.382;2022-11-15T12:55:01;94192.75;;;24.07;32.52
7768;BME280;3928;42.626;23.382;2022-11-15T12:57:34;94257.59;;;24.55;32.33
7768;BME280;3928;42.626;23.382;2022-11-15T13:03:21;94243.19;;;24.60;31.85
7768;BME280;3928;42.626;23.382;2022-11-15T13:08:51;94240.72;;;24.46;31.63
7768;BME280;3928;42.626;23.382;2022-11-15T13:14:43;94238.88;;;24.35;31.80
7768;BME280;3928;42.626;23.382;2022-11-15T13:17:35;94236.25;;;24.35;32.15
7768;BME280;3928;42.626;23.382;2022-11-15T13:20:19;94235.50;;;24.33;32.53
7768;BME280;3928;42.626;23.382;2022-11-15T13:22:48;94237.06;;;24.36;31.87
7768;BME280;3928;42.626;23.382;2022-11-15T13:25:53;94232.00;;;24.45;32.02
7768;BME280;3928;42.626;23.382;2022-11-15T13:28:29;94220.78;;;24.43;32.11
7768;BME280;3928;42.626;23.382;2022-11-15T13:31:00;94215.22;;;24.48;32.25
7768;BME280;3928;42.626;23.382;2022-11-15T13:33:33;94212.94;;;24.43;31.87
7768;BME280;3928;42.626;23.382;2022-11-15T13:36:03;94221.75;;;24.42;32.10
7768;BME280;3928;42.626;23.382;2022-11-15T13:38:33;94218.81;;;24.34;31.91
7768;BME280;3928;42.626;23.382;2022-11-15T13:41:17;94207.69;;;23.94;32.34
7768;BME280;3928;42.626;23.382;2022-11-15T13:43:45;94222.28;;;23.73;32.63
7768;BME280;3928;42.626;23.382;2022-11-15T13:46:17;94221.44;;;23.72;33.38
7768;BME280;3928;42.626;23.382;2022-11-15T13:48:45;94214.31;;;23.61;32.78
7768;BME280;3928;42.626;23.382;2022-11-15T13:51:17;94216.28;;;23.45;32.79
7768;BME280;3928;42.626;23.382;2022-11-15T13:53:48;94216.69;;;23.26;33.22
7768;BME280;3928;42.626;23.382;2022-11-15T13:56:16;94211.44;;;23.01;33.43
7768;BME280;3928;42.626;23.382;2022-11-15T13:58:45;94208.72;;;22.75;34.32
7768;BME280;3928;42.626;23.382;2022-11-15T14:01:17;94211.94;;;22.39;34.61
7768;BME280;3928;42.626;23.382;2022-11-15T14:03:50;94200.50;;;21.99;35.57
7768;BME280;3928;42.626;23.382;2022-11-15T14:06:20;94204.47;;;21.78;35.85
7768;BME280;3928;42.626;23.382;2022-11-15T14:09:00;94207.56;;;21.56;36.14
7768;BME280;3928;42.626;23.382;2022-11-15T14:11:27;94204.47;;;21.35;36.57
7768;BME280;3928;42.626;23.382;2022-11-15T14:14:10;94196.28;;;20.97;36.89
7768;BME280;3928;42.626;23.382;2022-11-15T14:16:41;94194.19;;;20.58;37.92
7768;BME280;3928;42.626;23.382;2022-11-15T14:19:10;94193.06;;;20.16;38.64
7768;BME280;3928;42.626;23.382;2022-11-15T14:22:10;94191.38;;;19.68;39.55
7768;BME280;3928;42.626;23.382;2022-11-15T14:24:37;94191.94;;;19.40;40.33
7768;BME280;3928;42.626;23.382;2022-11-15T14:27:21;94192.19;;;19.02;41.30
7768;BME280;3928;42.626;23.382;2022-11-15T14:29:49;94191.91;;;18.74;42.04
7768;BME280;3928;42.626;23.382;2022-11-15T14:32:18;94194.28;;;18.42;42.78